createdAt,value
2023-05-05T00:01:06.350Z,6.5
2023-05-05T00:02:06.389Z,6.67
2023-05-05T00:04:06.360Z,6.5
2023-05-05T00:05:06.382Z,6.67
2023-05-05T00:07:06.345Z,6.67
2023-05-05T00:08:06.343Z,6.39
2023-05-05T00:09:06.345Z,6.39
2023-05-05T00:10:06.604Z,6.5
2023-05-05T00:11:06.356Z,6.67
2023-05-05T00:12:06.340Z,6.67
2023-05-05T00:13:06.540Z,6.67
2023-05-05T00:14:06.367Z,6.67
2023-05-05T00:15:06.347Z,6.67
2023-05-05T00:16:06.336Z,6.78
2023-05-05T00:17:06.346Z,6.78
2023-05-05T00:18:06.386Z,6.67
2023-05-05T00:20:06.553Z,6.67
2023-05-05T00:21:06.373Z,6.94
2023-05-05T00:23:06.369Z,7.11
2023-05-05T00:24:06.381Z,7.11
2023-05-05T00:25:06.353Z,7.11
2023-05-05T00:27:06.348Z,6.67
2023-05-05T00:28:06.400Z,6.67
2023-05-05T00:30:06.557Z,6.67
2023-05-05T00:31:06.424Z,6.67
2023-05-05T00:32:06.352Z,6.5
2023-05-05T00:33:06.354Z,6.5
2023-05-05T00:35:06.369Z,6.67
2023-05-05T00:36:06.356Z,6.5
2023-05-05T00:37:06.388Z,6.67
2023-05-05T00:39:06.377Z,6.67
2023-05-05T00:40:06.602Z,6.67
2023-05-05T00:41:06.364Z,6.67
2023-05-05T00:42:06.371Z,6.67
2023-05-05T00:43:06.389Z,6.78
2023-05-05T00:44:06.367Z,6.94
2023-05-05T00:45:06.370Z,6.78
2023-05-05T00:46:06.457Z,7.11
2023-05-05T00:47:06.414Z,7.11
2023-05-05T00:48:06.399Z,6.67
2023-05-05T00:49:06.408Z,6.39
2023-05-05T00:51:06.384Z,6.67
2023-05-05T00:52:06.381Z,6.39
2023-05-05T00:53:06.402Z,6.67
2023-05-05T00:55:06.382Z,6.67
2023-05-05T00:56:06.371Z,6.67
2023-05-05T00:57:06.364Z,6.67
2023-05-05T00:58:06.372Z,6.78
2023-05-05T00:59:06.397Z,6.94
2023-05-05T01:01:06.391Z,6.67
2023-05-05T01:03:06.479Z,6.67
2023-05-05T01:04:06.589Z,6.5
2023-05-05T01:06:06.431Z,6.67
2023-05-05T01:08:06.385Z,6.67
2023-05-05T01:09:06.433Z,6.67
2023-05-05T01:11:06.387Z,6.67
2023-05-05T01:12:06.401Z,6.5
2023-05-05T01:14:06.379Z,6.67
2023-05-05T01:16:06.414Z,6.67
2023-05-05T01:17:06.377Z,6.67
2023-05-05T01:18:06.441Z,5.94
2023-05-05T01:20:06.566Z,6.67
2023-05-05T01:22:06.388Z,6.5
2023-05-05T01:23:06.397Z,6.22
2023-05-05T01:25:06.502Z,5.78
2023-05-05T01:27:06.392Z,5.78
2023-05-05T01:29:06.397Z,6.22
2023-05-05T01:30:06.662Z,6.39
2023-05-05T01:32:06.395Z,6.22
2023-05-05T01:33:06.408Z,6.39
2023-05-05T01:34:06.418Z,6.22
2023-05-05T01:35:06.385Z,6.39
2023-05-05T01:36:06.385Z,6.5
2023-05-05T01:37:06.397Z,6.39
2023-05-05T01:39:06.394Z,6.39
2023-05-05T01:41:06.442Z,6.39
2023-05-05T01:42:06.381Z,6.5
2023-05-05T01:43:06.394Z,6.22
2023-05-05T01:44:06.386Z,6.06
2023-05-05T01:45:06.395Z,5.56
2023-05-05T01:47:06.416Z,5.67
2023-05-05T01:49:06.413Z,5.39
2023-05-05T01:50:06.594Z,5.56
2023-05-05T01:52:06.399Z,5.67
2023-05-05T01:53:06.398Z,5.39
2023-05-05T01:54:06.392Z,5.56
2023-05-05T01:55:06.389Z,5.67
2023-05-05T01:56:06.385Z,5.78
2023-05-05T01:57:06.425Z,5.78
2023-05-05T01:59:06.406Z,5.78
2023-05-05T02:00:06.493Z,5.78
2023-05-05T02:01:06.428Z,5.78
2023-05-05T02:02:06.409Z,5.39
2023-05-05T02:03:06.463Z,5.39
2023-05-05T02:04:06.394Z,5.39
2023-05-05T02:05:06.400Z,5.39
2023-05-05T02:06:06.383Z,5.78
2023-05-05T02:07:06.403Z,5.56
2023-05-05T02:08:06.389Z,5.78
2023-05-05T02:10:06.700Z,5.78
2023-05-05T02:11:06.422Z,5.78
2023-05-05T02:12:06.408Z,5.78
2023-05-05T02:13:06.493Z,5.94
2023-05-05T02:14:06.394Z,6.22
2023-05-05T02:15:06.419Z,6.06
2023-05-05T02:17:06.400Z,5.94
2023-05-05T02:18:06.552Z,6.06
2023-05-05T02:20:06.523Z,5.56
2023-05-05T02:21:06.409Z,5.78
2023-05-05T02:22:06.411Z,5.56
2023-05-05T02:23:06.435Z,5.78
2023-05-05T02:25:06.421Z,5.78
2023-05-05T02:26:06.429Z,5.78
2023-05-05T02:27:06.409Z,5.56
2023-05-05T02:28:06.416Z,5.39
2023-05-05T02:29:06.439Z,5.22
2023-05-05T02:31:06.428Z,5.11
2023-05-05T02:32:06.427Z,5.39
2023-05-05T02:33:06.472Z,5.56
2023-05-05T02:35:06.429Z,5.39
2023-05-05T02:37:06.456Z,5.39
2023-05-05T02:38:06.427Z,5.39
2023-05-05T02:40:06.644Z,5.39
2023-05-05T02:41:06.425Z,5.39
2023-05-05T02:42:06.447Z,5.22
2023-05-05T02:44:06.443Z,5.39
2023-05-05T02:45:06.471Z,5.22
2023-05-05T02:47:06.452Z,5.11
2023-05-05T02:48:06.455Z,5.22
2023-05-05T02:49:06.441Z,4.94
2023-05-05T02:50:06.659Z,5.11
2023-05-05T02:51:06.440Z,5.11
2023-05-05T02:52:06.442Z,5.39
2023-05-05T02:53:06.449Z,5.11
2023-05-05T02:55:06.452Z,5.22
2023-05-05T02:56:06.443Z,5.11
2023-05-05T02:58:06.433Z,5.56
2023-05-05T02:59:06.442Z,5.56
2023-05-05T03:01:06.530Z,5.11
2023-05-05T03:03:06.483Z,5.39
2023-05-05T03:04:06.448Z,5.39
2023-05-05T03:05:06.448Z,5.39
2023-05-05T03:06:06.461Z,5.39
2023-05-05T03:07:06.436Z,5.39
2023-05-05T03:08:06.435Z,5.39
2023-05-05T03:09:06.452Z,5.11
2023-05-05T03:11:06.474Z,5.39
2023-05-05T03:12:06.440Z,5.56
2023-05-05T03:13:06.469Z,5.39
2023-05-05T03:15:06.447Z,4.83
2023-05-05T03:17:06.471Z,5.22
2023-05-05T03:19:06.453Z,5.22
2023-05-05T03:20:06.628Z,5.22
2023-05-05T03:21:06.455Z,5.39
2023-05-05T03:22:06.442Z,5.39
2023-05-05T03:23:06.459Z,5.22
2023-05-05T03:24:06.456Z,5.22
2023-05-05T03:25:06.448Z,5.22
2023-05-05T03:26:06.453Z,5.39
2023-05-05T03:27:06.466Z,5.22
2023-05-05T03:28:06.459Z,5.11
2023-05-05T03:29:06.463Z,4.94
2023-05-05T03:31:06.482Z,4.83
2023-05-05T03:33:06.481Z,4.94
2023-05-05T03:35:06.452Z,4.83
2023-05-05T03:36:06.458Z,4.83
2023-05-05T03:38:06.463Z,4.67
2023-05-05T03:39:06.466Z,4.5
2023-05-05T03:41:06.513Z,4.94
2023-05-05T03:42:06.466Z,4.94
2023-05-05T03:44:06.484Z,4.83
2023-05-05T03:46:06.502Z,4.39
2023-05-05T03:48:06.484Z,4.5
2023-05-05T03:49:06.497Z,4.39
2023-05-05T03:51:06.480Z,4.67
2023-05-05T03:52:06.456Z,4.94
2023-05-05T03:53:06.454Z,4.83
2023-05-05T03:54:06.473Z,4.94
2023-05-05T03:55:06.465Z,4.94
2023-05-05T03:57:06.481Z,4.5
2023-05-05T03:58:06.481Z,3.94
2023-05-05T03:59:06.476Z,4.5
2023-05-05T04:00:06.554Z,4.39
2023-05-05T04:01:06.465Z,4.94
2023-05-05T04:02:06.489Z,4.94
2023-05-05T04:03:06.591Z,4.94
2023-05-05T04:04:06.498Z,4.83
2023-05-05T04:05:06.485Z,4.67
2023-05-05T04:07:06.486Z,4.39
2023-05-05T04:08:06.458Z,4.39
2023-05-05T04:09:06.493Z,4.5
2023-05-05T04:10:06.695Z,4.39
2023-05-05T04:11:06.484Z,4.94
2023-05-05T04:12:06.484Z,4.83
2023-05-05T04:13:06.494Z,4.83
2023-05-05T04:15:06.480Z,4.67
2023-05-05T04:16:06.493Z,4.67
2023-05-05T04:17:06.485Z,4.39
2023-05-05T04:19:06.484Z,4.22
2023-05-05T04:21:06.503Z,4.5
2023-05-05T04:23:06.497Z,4.5
2023-05-05T04:24:06.469Z,4.67
2023-05-05T04:25:06.488Z,4.94
2023-05-05T04:26:06.473Z,4.39
2023-05-05T04:27:06.465Z,4.39
2023-05-05T04:28:06.477Z,5.11
2023-05-05T04:29:06.488Z,5.11
2023-05-05T04:30:06.697Z,5.39
2023-05-05T04:32:06.475Z,5.22
2023-05-05T04:34:06.499Z,5.11
2023-05-05T04:36:06.479Z,5.67
2023-05-05T04:37:06.516Z,5.56
2023-05-05T04:39:06.501Z,5.78
2023-05-05T04:40:06.722Z,5.78
2023-05-05T04:41:06.469Z,5.78
2023-05-05T04:42:06.480Z,5.39
2023-05-05T04:44:06.485Z,5.67
2023-05-05T04:46:06.481Z,5.22
2023-05-05T04:47:06.479Z,5.56
2023-05-05T04:48:06.499Z,5.22
2023-05-05T04:49:06.491Z,4.67
2023-05-05T04:51:06.485Z,4.83
2023-05-05T04:52:06.488Z,5.11
2023-05-05T04:53:06.509Z,4.94
2023-05-05T04:55:06.503Z,5.39
2023-05-05T04:56:06.481Z,5.39
2023-05-05T04:57:06.494Z,5.67
2023-05-05T04:58:06.505Z,5.78
2023-05-05T05:00:06.594Z,5.94
2023-05-05T05:02:06.503Z,5.78
2023-05-05T05:03:06.524Z,6.22
2023-05-05T05:04:06.521Z,6.78
2023-05-05T05:05:06.504Z,6.56
2023-05-05T05:06:06.499Z,6.44
2023-05-05T05:08:06.504Z,6.39
2023-05-05T05:09:06.550Z,6.44
2023-05-05T05:10:06.608Z,6.44
2023-05-05T05:11:06.537Z,6.28
2023-05-05T05:12:06.529Z,6.56
2023-05-05T05:13:06.555Z,6.83
2023-05-05T05:14:06.513Z,6.83
2023-05-05T05:15:06.507Z,7
2023-05-05T05:16:06.548Z,6.83
2023-05-05T05:18:06.557Z,7.72
2023-05-05T05:19:06.516Z,7.61
2023-05-05T05:20:06.720Z,7.17
2023-05-05T05:22:06.548Z,8.44
2023-05-05T05:24:06.533Z,11.22
2023-05-05T05:25:06.542Z,11.94
2023-05-05T05:27:08.579Z,12.5
2023-05-05T05:28:10.490Z,13.11
2023-05-05T05:29:06.515Z,13
2023-05-05T05:30:06.781Z,12.67
2023-05-05T05:31:06.528Z,11.94
2023-05-05T05:33:06.542Z,10.94
2023-05-05T05:34:06.540Z,9.89
2023-05-05T05:36:06.523Z,7.61
2023-05-05T05:37:06.550Z,7.28
2023-05-05T05:39:06.530Z,6.83
2023-05-05T05:40:06.757Z,6.72
2023-05-05T05:41:06.557Z,6.83
2023-05-05T05:42:06.529Z,6.83
2023-05-05T05:43:06.562Z,6.83
2023-05-05T05:45:06.533Z,7.17
2023-05-05T05:46:08.990Z,7.28
2023-05-05T05:47:06.537Z,7.28
2023-05-05T05:48:06.556Z,7.28
2023-05-05T05:49:06.534Z,7.28
2023-05-05T05:50:06.722Z,7.28
2023-05-05T05:51:06.546Z,7.39
2023-05-05T05:52:06.560Z,7.06
2023-05-05T05:53:06.553Z,7.28
2023-05-05T05:54:06.539Z,7.61
2023-05-05T05:55:06.551Z,7.61
2023-05-05T05:56:06.560Z,7.61
2023-05-05T05:57:06.584Z,7.17
2023-05-05T05:59:06.560Z,6.94
2023-05-05T06:00:06.756Z,6.94
2023-05-05T06:01:06.616Z,7.11
2023-05-05T06:02:06.578Z,7.22
2023-05-05T06:03:06.690Z,7.5
2023-05-05T06:05:06.569Z,7.94
2023-05-05T06:07:06.559Z,7.89
2023-05-05T06:08:06.558Z,7.94
2023-05-05T06:09:06.564Z,7.94
2023-05-05T06:10:18.971Z,7.94
2023-05-05T06:11:06.589Z,7.67
2023-05-05T06:12:06.554Z,8.39
2023-05-05T06:13:06.730Z,8.5
2023-05-05T06:14:06.565Z,8.61
2023-05-05T06:15:06.563Z,8.67
2023-05-05T06:16:06.573Z,9.28
2023-05-05T06:17:06.565Z,10
2023-05-05T06:18:06.630Z,9.28
2023-05-05T06:19:06.563Z,9.89
2023-05-05T06:20:06.708Z,10.33
2023-05-05T06:21:06.592Z,10.17
2023-05-05T06:22:06.576Z,11.56
2023-05-05T06:24:06.582Z,12.39
2023-05-05T06:25:06.572Z,11.33
2023-05-05T06:26:06.588Z,11.94
2023-05-05T06:27:06.585Z,11.94
2023-05-05T06:28:06.572Z,11.94
2023-05-05T06:29:06.602Z,12.06
2023-05-05T06:31:06.595Z,13.28
2023-05-05T06:32:06.581Z,14.22
2023-05-05T06:33:06.622Z,14.06
2023-05-05T06:35:06.604Z,14.83
2023-05-05T06:37:06.603Z,13.89
2023-05-05T06:38:06.605Z,14.33
2023-05-05T06:39:06.606Z,14.33
2023-05-05T06:41:06.588Z,13.89
2023-05-05T06:42:06.605Z,13.89
2023-05-05T06:43:06.601Z,13.28
2023-05-05T06:44:06.611Z,14.67
2023-05-05T06:45:06.631Z,15.72
2023-05-05T06:47:06.661Z,16.61
2023-05-05T06:48:06.621Z,16.78
2023-05-05T06:49:06.605Z,16.17
2023-05-05T06:50:06.793Z,15.56
2023-05-05T06:51:06.643Z,15.33
2023-05-05T06:52:06.601Z,15
2023-05-05T06:53:06.618Z,14.83
2023-05-05T06:55:06.618Z,14.06
2023-05-05T06:56:06.617Z,13
2023-05-05T06:57:06.622Z,13.89
2023-05-05T06:58:06.638Z,15
2023-05-05T06:59:06.616Z,16.61
2023-05-05T07:00:06.801Z,16.17
2023-05-05T07:01:06.771Z,16.33
2023-05-05T07:03:06.660Z,15.28
2023-05-05T07:04:06.784Z,14.83
2023-05-05T07:06:06.639Z,15.56
2023-05-05T07:07:06.628Z,16.61
2023-05-05T07:08:06.628Z,16.61
2023-05-05T07:09:06.635Z,16.17
2023-05-05T07:12:06.641Z,16.44
2023-05-05T07:14:06.651Z,16.61
2023-05-05T07:15:15.739Z,16.17
2023-05-05T07:17:06.750Z,16.33
2023-05-05T07:19:06.648Z,17.11
2023-05-05T07:20:06.751Z,16.78
2023-05-05T07:21:06.651Z,16.94
2023-05-05T07:22:06.636Z,17.61
2023-05-05T07:23:06.648Z,17.89
2023-05-05T07:24:06.657Z,17.44
2023-05-05T07:25:06.664Z,18.11
2023-05-05T07:26:06.643Z,18.39
2023-05-05T07:27:06.642Z,18.11
2023-05-05T07:28:06.659Z,19.06
2023-05-05T07:29:06.660Z,18.56
2023-05-05T07:30:10.262Z,17.94
2023-05-05T07:32:06.683Z,16.83
2023-05-05T07:33:06.820Z,16.5
2023-05-05T07:35:06.693Z,16.06
2023-05-05T07:36:06.693Z,16.39
2023-05-05T07:37:06.670Z,16.39
2023-05-05T07:39:06.671Z,15.89
2023-05-05T07:40:06.861Z,16.06
2023-05-05T07:41:06.674Z,15.39
2023-05-05T07:42:06.653Z,15.39
2023-05-05T07:43:06.670Z,15.56
2023-05-05T07:44:06.672Z,15.72
2023-05-05T07:45:06.660Z,15.39
2023-05-05T07:47:06.666Z,15.56
2023-05-05T07:49:06.772Z,14.06
2023-05-05T07:51:06.682Z,14.28
2023-05-05T07:52:06.679Z,14.39
2023-05-05T07:54:06.730Z,15.56
2023-05-05T07:56:06.678Z,15
2023-05-05T07:58:06.684Z,15
2023-05-05T08:00:07.015Z,15.72
2023-05-05T08:01:06.683Z,16.06
2023-05-05T08:03:09.022Z,16.83
2023-05-05T08:04:06.771Z,16.83
2023-05-05T08:05:07.161Z,16.83
2023-05-05T08:07:06.686Z,16.5
2023-05-05T08:08:06.689Z,16.83
2023-05-05T08:09:06.679Z,16.83
2023-05-05T08:10:06.686Z,17.17
2023-05-05T08:11:06.922Z,16.5
2023-05-05T08:12:06.686Z,16.83
2023-05-05T08:13:06.706Z,16.39
2023-05-05T08:14:06.691Z,16.39
2023-05-05T08:15:06.849Z,16.83
2023-05-05T08:16:06.765Z,17.28
2023-05-05T08:17:06.685Z,17
2023-05-05T08:18:06.810Z,16.67
2023-05-05T08:19:14.808Z,16.06
2023-05-05T08:20:06.706Z,16.22
2023-05-05T08:21:06.878Z,16.39
2023-05-05T08:23:06.697Z,17.28
2023-05-05T08:25:06.888Z,16.83
2023-05-05T08:26:06.696Z,15.89
2023-05-05T08:27:06.707Z,16.67
2023-05-05T08:28:06.720Z,16.67
2023-05-05T08:29:06.695Z,17.28
2023-05-05T08:30:06.713Z,17.17
2023-05-05T08:31:06.765Z,17.28
2023-05-05T08:33:06.740Z,17.28
2023-05-05T08:34:06.720Z,17.44
2023-05-05T08:35:07.320Z,17.94
2023-05-05T08:36:06.728Z,17.44
2023-05-05T08:37:06.842Z,17.61
2023-05-05T08:39:06.717Z,16.39
2023-05-05T08:41:06.723Z,16.83
2023-05-05T08:42:06.743Z,16.39
2023-05-05T08:44:06.718Z,16.67
2023-05-05T08:45:06.835Z,16.83
2023-05-05T08:47:06.733Z,16.39
2023-05-05T08:48:06.749Z,16.5
2023-05-05T08:49:06.734Z,16.83
2023-05-05T08:50:06.723Z,17.28
2023-05-05T08:51:06.718Z,17.94
2023-05-05T08:52:06.716Z,17.94
2023-05-05T08:53:06.884Z,17
2023-05-05T08:55:06.793Z,17.33
2023-05-05T08:56:06.736Z,18.56
2023-05-05T08:58:06.737Z,18.89
2023-05-05T08:59:06.749Z,18.28
2023-05-05T09:00:06.728Z,17.94
2023-05-05T09:01:06.810Z,17.5
2023-05-05T09:02:06.746Z,17.17
2023-05-05T09:03:06.806Z,17.33
2023-05-05T09:04:06.718Z,17.33
2023-05-05T09:05:06.935Z,17.67
2023-05-05T09:06:06.742Z,17.83
2023-05-05T09:07:06.752Z,17.67
2023-05-05T09:08:06.742Z,17.94
2023-05-05T09:09:06.900Z,18.44
2023-05-05T09:11:06.770Z,19.06
2023-05-05T09:12:06.721Z,19.78
2023-05-05T09:13:06.744Z,19.44
2023-05-05T09:14:06.746Z,18.44
2023-05-05T09:15:06.919Z,17.5
2023-05-05T09:16:06.745Z,17.5
2023-05-05T09:17:06.812Z,17.67
2023-05-05T09:18:06.773Z,17.67
2023-05-05T09:20:06.738Z,18.28
2023-05-05T09:21:06.748Z,18.17
2023-05-05T09:22:06.724Z,18.44
2023-05-05T09:23:06.740Z,19.44
2023-05-05T09:24:08.310Z,18.94
2023-05-05T09:25:07.060Z,17.94
2023-05-05T09:27:06.737Z,17.67
2023-05-05T09:28:06.726Z,18.28
2023-05-05T09:29:06.753Z,19.44
2023-05-05T09:30:06.757Z,20.33
2023-05-05T09:31:06.825Z,20.83
2023-05-05T09:32:06.741Z,20.83
2023-05-05T09:33:06.744Z,19.06
2023-05-05T09:34:06.736Z,19.94
2023-05-05T09:36:06.747Z,20.72
2023-05-05T09:38:06.735Z,20.72
2023-05-05T09:39:06.783Z,21
2023-05-05T09:40:06.736Z,21.39
2023-05-05T09:41:06.848Z,21.56
2023-05-05T09:43:06.783Z,21.39
2023-05-05T09:45:06.884Z,19.94
2023-05-05T09:46:06.879Z,20.22
2023-05-05T09:47:15.016Z,20.33
2023-05-05T09:48:06.781Z,20.83
2023-05-05T09:49:06.752Z,21.22
2023-05-05T09:51:06.749Z,21
2023-05-05T09:52:06.787Z,21.39
2023-05-05T09:54:06.755Z,21.22
2023-05-05T09:56:06.759Z,22.22
2023-05-05T09:57:06.949Z,22.06
2023-05-05T09:59:06.765Z,21.89
2023-05-05T10:00:06.948Z,22.39
2023-05-05T10:01:06.780Z,23.11
2023-05-05T10:02:06.756Z,24
2023-05-05T10:04:06.752Z,24.56
2023-05-05T10:06:06.751Z,24.17
2023-05-05T10:07:06.760Z,23.83
2023-05-05T10:08:06.771Z,22.39
2023-05-05T10:09:06.749Z,23.11
2023-05-05T10:10:07.038Z,24
2023-05-05T10:11:06.769Z,24
2023-05-05T10:12:06.761Z,24.17
2023-05-05T10:13:06.930Z,24.56
2023-05-05T10:15:06.761Z,24.56
2023-05-05T10:16:06.768Z,24.56
2023-05-05T10:18:08.356Z,24.17
2023-05-05T10:19:06.752Z,23.44
2023-05-05T10:20:06.955Z,23.44
2023-05-05T10:21:06.754Z,22.94
2023-05-05T10:22:06.758Z,23.44
2023-05-05T10:23:06.759Z,23.83
2023-05-05T10:25:06.773Z,23.67
2023-05-05T10:26:06.756Z,24.39
2023-05-05T10:27:06.754Z,24.17
2023-05-05T10:28:06.769Z,25.06
2023-05-05T10:29:06.863Z,24.56
2023-05-05T10:31:16.400Z,24.17
2023-05-05T10:32:21.669Z,24
2023-05-05T10:33:27.057Z,24.17
2023-05-05T10:35:06.793Z,25.61
2023-05-05T10:36:06.790Z,25.22
2023-05-05T10:37:06.802Z,25.06
2023-05-05T10:39:06.774Z,23.11
2023-05-05T10:40:06.941Z,22.61
2023-05-05T10:41:06.784Z,22.61
2023-05-05T10:42:06.785Z,22.61
2023-05-05T10:43:06.785Z,22.61
2023-05-05T10:45:06.887Z,23.67
2023-05-05T10:47:06.786Z,22.78
2023-05-05T10:49:06.786Z,22.39
2023-05-05T10:50:06.985Z,22.06
2023-05-05T10:51:06.781Z,22.39
2023-05-05T10:52:06.787Z,22.61
2023-05-05T10:53:06.782Z,22.61
2023-05-05T10:54:06.808Z,23.11
2023-05-05T10:56:06.776Z,23.11
2023-05-05T10:57:06.778Z,23.28
2023-05-05T10:58:06.793Z,23.67
2023-05-05T11:00:06.918Z,22.61
2023-05-05T11:01:06.960Z,22.61
2023-05-05T11:03:06.887Z,23.11
2023-05-05T11:04:06.837Z,23.28
2023-05-05T11:05:06.786Z,23.44
2023-05-05T11:06:06.787Z,22.06
2023-05-05T11:07:06.799Z,22.06
2023-05-05T11:08:06.787Z,22.06
2023-05-05T11:09:06.783Z,21.56
2023-05-05T11:10:06.967Z,21.39
2023-05-05T11:11:06.786Z,21.22
2023-05-05T11:12:06.789Z,21.56
2023-05-05T11:14:06.786Z,22.06
2023-05-05T11:16:06.819Z,22.61
2023-05-05T11:17:06.981Z,22.61
2023-05-05T11:19:06.787Z,23.11
2023-05-05T11:20:06.942Z,22.94
2023-05-05T11:22:06.782Z,23.11
2023-05-05T11:23:06.816Z,23.11
2023-05-05T11:24:06.800Z,22.17
2023-05-05T11:26:06.784Z,22.67
2023-05-05T11:27:06.783Z,23.39
2023-05-05T11:28:06.805Z,23.28
2023-05-05T11:29:06.788Z,24.11
2023-05-05T11:30:07.012Z,24.33
2023-05-05T11:31:06.820Z,24
2023-05-05T11:32:06.792Z,24.33
2023-05-05T11:33:07.014Z,23.67
2023-05-05T11:34:06.784Z,24.67
2023-05-05T11:35:06.804Z,25.22
2023-05-05T11:36:07.261Z,26
2023-05-05T11:37:06.779Z,26.56
2023-05-05T11:38:06.796Z,26.89
2023-05-05T11:40:06.936Z,26.56
2023-05-05T11:41:06.801Z,25.61
2023-05-05T11:42:10.624Z,24.89
2023-05-05T11:44:06.815Z,23.83
2023-05-05T11:45:06.816Z,24.17
2023-05-05T11:46:06.866Z,24.67
2023-05-05T11:47:06.791Z,24.5
2023-05-05T11:48:07.055Z,24.33
2023-05-05T11:49:06.930Z,24.33
2023-05-05T11:51:06.808Z,24
2023-05-05T11:52:06.831Z,24.33
2023-05-05T11:54:06.812Z,25.06
2023-05-05T11:55:06.807Z,25.22
2023-05-05T11:57:06.811Z,24.67
2023-05-05T11:58:06.804Z,24.33
2023-05-05T11:59:06.807Z,24
2023-05-05T12:00:06.915Z,22.94
2023-05-05T12:01:06.804Z,22.78
2023-05-05T12:03:06.958Z,22.78
2023-05-05T12:04:06.978Z,23.28
2023-05-05T12:05:06.949Z,24
2023-05-05T12:07:06.813Z,24.89
2023-05-05T12:09:06.813Z,23.83
2023-05-05T12:10:07.007Z,23.44
2023-05-05T12:11:06.815Z,23.11
2023-05-05T12:13:06.838Z,23.11
2023-05-05T12:14:06.811Z,23.11
2023-05-05T12:15:06.833Z,23.28
2023-05-05T12:16:06.878Z,23.83
2023-05-05T12:18:06.862Z,23.83
2023-05-05T12:19:06.870Z,23.44
2023-05-05T12:21:06.970Z,23.83
2023-05-05T12:23:06.823Z,23.83
2023-05-05T12:24:06.818Z,24
2023-05-05T12:25:06.831Z,25.44
2023-05-05T12:27:06.825Z,25.44
2023-05-05T12:28:06.828Z,25.06
2023-05-05T12:29:06.827Z,25.61
2023-05-05T12:31:06.912Z,26.56
2023-05-05T12:33:06.904Z,27.39
2023-05-05T12:35:06.830Z,27.5
2023-05-05T12:36:06.877Z,27.39
2023-05-05T12:37:06.922Z,27.39
2023-05-05T12:39:06.829Z,26.94
2023-05-05T12:41:06.839Z,26.72
2023-05-05T12:42:06.836Z,26.56
2023-05-05T12:43:06.849Z,26.33
2023-05-05T12:44:06.858Z,26.56
2023-05-05T12:45:06.842Z,26.56
2023-05-05T12:46:06.924Z,26.72
2023-05-05T12:47:06.848Z,26.72
2023-05-05T12:48:06.867Z,24.33
2023-05-05T12:50:06.971Z,23.11
2023-05-05T12:51:06.906Z,23.11
2023-05-05T12:53:06.968Z,22.78
2023-05-05T12:54:06.858Z,23.11
2023-05-05T12:55:06.974Z,23.28
2023-05-05T12:56:06.851Z,22.94
2023-05-05T12:57:06.856Z,22.78
2023-05-05T12:58:06.856Z,23.28
2023-05-05T12:59:06.853Z,24
2023-05-05T13:00:07.084Z,23.44
2023-05-05T13:01:06.883Z,23.44
2023-05-05T13:02:06.883Z,23.44
2023-05-05T13:04:06.859Z,24
2023-05-05T13:05:06.981Z,23.83
2023-05-05T13:06:06.882Z,24
2023-05-05T13:07:06.869Z,24.5
2023-05-05T13:08:06.877Z,24.5
2023-05-05T13:09:06.976Z,24
2023-05-05T13:11:06.880Z,23.67
2023-05-05T13:12:06.867Z,23.67
2023-05-05T13:13:06.976Z,24.67
2023-05-05T13:14:06.882Z,24.89
2023-05-05T13:16:06.883Z,24.5
2023-05-05T13:17:06.881Z,24.89
2023-05-05T13:18:06.927Z,24.89
2023-05-05T13:19:06.879Z,25.06
2023-05-05T13:20:06.918Z,24.89
2023-05-05T13:21:06.867Z,24.5
2023-05-05T13:22:06.898Z,24
2023-05-05T13:23:06.866Z,24.5
2023-05-05T13:24:18.816Z,24
2023-05-05T13:25:06.973Z,24.33
2023-05-05T13:27:06.872Z,24.5
2023-05-05T13:28:06.886Z,24.5
2023-05-05T13:29:06.879Z,24.33
2023-05-05T13:30:06.912Z,24.5
2023-05-05T13:32:06.895Z,24
2023-05-05T13:33:06.915Z,23.67
2023-05-05T13:34:06.909Z,23.83
2023-05-05T13:36:06.907Z,23.83
2023-05-05T13:37:06.888Z,23.83
2023-05-05T13:38:06.882Z,23.67
2023-05-05T13:39:06.894Z,23.67
2023-05-05T13:40:06.935Z,23.11
2023-05-05T13:41:06.954Z,23.44
2023-05-05T13:43:06.899Z,23.44
2023-05-05T13:44:06.897Z,23.44
2023-05-05T13:46:19.022Z,23.28
2023-05-05T13:47:06.932Z,23.28
2023-05-05T13:48:06.903Z,23.67
2023-05-05T13:49:06.916Z,23.67
2023-05-05T13:51:06.907Z,23.11
2023-05-05T13:52:06.903Z,23.28
2023-05-05T13:53:06.899Z,23.28
2023-05-05T13:55:07.112Z,22.78
2023-05-05T13:56:06.900Z,23.44
2023-05-05T13:57:07.059Z,23.44
2023-05-05T13:59:06.915Z,23.67
2023-05-05T14:00:06.910Z,23.44
2023-05-05T14:02:06.912Z,22.78
2023-05-05T14:03:06.913Z,22.94
2023-05-05T14:05:07.174Z,23.28
2023-05-05T14:06:06.937Z,23.83
2023-05-05T14:07:06.897Z,23.44
2023-05-05T14:08:06.909Z,23.67
2023-05-05T14:09:06.904Z,23.67
2023-05-05T14:10:06.927Z,24
2023-05-05T14:11:06.908Z,24.33
2023-05-05T14:12:06.968Z,24.17
2023-05-05T14:13:07.042Z,24
2023-05-05T14:15:07.092Z,24
2023-05-05T14:16:06.938Z,23.83
2023-05-05T14:17:06.924Z,23.44
2023-05-05T14:18:06.931Z,24
2023-05-05T14:19:06.915Z,24.33
2023-05-05T14:20:06.916Z,24
2023-05-05T14:22:06.914Z,23.67
2023-05-05T14:24:06.920Z,24.17
2023-05-05T14:25:07.112Z,24.17
2023-05-05T14:26:06.916Z,24.67
2023-05-05T14:27:06.918Z,24.5
2023-05-05T14:29:07.108Z,25.22
2023-05-05T14:31:06.942Z,25.06
2023-05-05T14:33:06.946Z,25.06
2023-05-05T14:34:06.905Z,24.5
2023-05-05T14:35:06.961Z,24.67
2023-05-05T14:36:06.918Z,24.67
2023-05-05T14:37:06.907Z,25.22
2023-05-05T14:38:06.949Z,25.5
2023-05-05T14:39:06.938Z,24.89
2023-05-05T14:40:06.941Z,24.78
2023-05-05T14:41:06.913Z,24.5
2023-05-05T14:43:06.922Z,24.89
2023-05-05T14:44:06.922Z,24.33
2023-05-05T14:45:07.237Z,24.33
2023-05-05T14:46:07.211Z,24
2023-05-05T14:47:06.926Z,23.94
2023-05-05T14:48:06.927Z,23.44
2023-05-05T14:49:06.930Z,23.44
2023-05-05T14:51:06.920Z,24.17
2023-05-05T14:52:06.941Z,24.17
2023-05-05T14:54:11.768Z,24.5
2023-05-05T14:55:07.059Z,24.33
2023-05-05T14:56:06.917Z,23.83
2023-05-05T14:57:06.933Z,24.17
2023-05-05T14:58:06.917Z,24
2023-05-05T14:59:06.928Z,24.17
2023-05-05T15:00:06.935Z,24.17
2023-05-05T15:01:07.097Z,24.33
2023-05-05T15:03:07.053Z,24.22
2023-05-05T15:04:06.933Z,24.33
2023-05-05T15:05:07.270Z,24
2023-05-05T15:07:06.926Z,24
2023-05-05T15:08:06.933Z,24.5
2023-05-05T15:09:06.942Z,24.5
2023-05-05T15:11:06.944Z,24.5
2023-05-05T15:12:06.936Z,24.67
2023-05-05T15:14:06.931Z,24.5
2023-05-05T15:15:07.068Z,25.22
2023-05-05T15:16:06.966Z,25.44
2023-05-05T15:17:07.092Z,24.89
2023-05-05T15:19:06.965Z,24.89
2023-05-05T15:20:07.006Z,24.67
2023-05-05T15:21:06.956Z,24.67
2023-05-05T15:22:06.946Z,24.5
2023-05-05T15:23:06.962Z,24.67
2023-05-05T15:25:07.225Z,24.67
2023-05-05T15:26:06.955Z,24.5
2023-05-05T15:28:06.950Z,24.89
2023-05-05T15:30:06.942Z,25.28
2023-05-05T15:31:06.944Z,24.89
2023-05-05T15:32:07.155Z,25.44
2023-05-05T15:33:07.010Z,25.06
2023-05-05T15:35:07.113Z,25.78
2023-05-05T15:36:06.934Z,26
2023-05-05T15:37:06.950Z,26
2023-05-05T15:38:06.947Z,25.78
2023-05-05T15:39:06.946Z,25.78
2023-05-05T15:40:06.970Z,25.61
2023-05-05T15:41:06.958Z,26.17
2023-05-05T15:42:06.950Z,26.56
2023-05-05T15:43:06.949Z,26
2023-05-05T15:44:06.950Z,26
2023-05-05T15:46:06.948Z,26
2023-05-05T15:47:06.963Z,26
2023-05-05T15:48:06.978Z,26
2023-05-05T15:49:07.085Z,26
2023-05-05T15:51:06.972Z,25.78
2023-05-05T15:52:06.962Z,26
2023-05-05T15:54:06.961Z,25.78
2023-05-05T15:56:06.956Z,24.89
2023-05-05T15:57:06.956Z,24.5
2023-05-05T15:59:07.625Z,24.67
2023-05-05T16:00:06.998Z,24.67
2023-05-05T16:01:06.978Z,24.33
2023-05-05T16:03:07.021Z,23.83
2023-05-05T16:05:07.276Z,23.67
2023-05-05T16:07:06.979Z,24.33
2023-05-05T16:08:06.979Z,24.33
2023-05-05T16:09:06.976Z,24.5
2023-05-05T16:11:06.962Z,25.22
2023-05-05T16:13:07.100Z,24.5
2023-05-05T16:14:06.959Z,24.33
2023-05-05T16:15:07.146Z,24.67
2023-05-05T16:16:06.960Z,24.33
2023-05-05T16:18:06.990Z,24.33
2023-05-05T16:20:06.966Z,25.22
2023-05-05T16:21:07.067Z,24.5
2023-05-05T16:23:06.977Z,24
2023-05-05T16:24:06.962Z,24.33
2023-05-05T16:25:07.160Z,24
2023-05-05T16:26:06.981Z,25.06
2023-05-05T16:27:07.004Z,24.67
2023-05-05T16:29:06.979Z,24
2023-05-05T16:31:06.980Z,24
2023-05-05T16:32:07.005Z,24.33
2023-05-05T16:33:07.075Z,23.83
2023-05-05T16:35:07.222Z,24.33
2023-05-05T16:36:06.960Z,24.33
2023-05-05T16:37:07.100Z,24.17
2023-05-05T16:39:06.971Z,25.44
2023-05-05T16:41:07.068Z,24.5
2023-05-05T16:42:06.985Z,24.5
2023-05-05T16:44:06.973Z,24.5
2023-05-05T16:45:07.081Z,24.17
2023-05-05T16:46:06.987Z,23.83
2023-05-05T16:47:06.972Z,23.67
2023-05-05T16:48:09.022Z,23.83